sensor_id;sensor_type;location;lat;lon;timestamp;P1;durP1;ratioP1;P2;durP2;ratioP2
24233;SDS011;12365;43.554;1.388;2024-03-02T00:00:36;12.52;;;5.97;;
24233;SDS011;12365;43.554;1.388;2024-03-02T00:03:02;12.32;;;6.45;;
24233;SDS011;12365;43.554;1.388;2024-03-02T00:05:28;12.20;;;5.90;;
24233;SDS011;12365;43.554;1.388;2024-03-02T00:10:21;8.18;;;5.13;;
24233;SDS011;12365;43.554;1.388;2024-03-02T00:12:53;9.40;;;5.43;;
24233;SDS011;12365;43.554;1.388;2024-03-02T00:15:40;10.02;;;5.40;;
24233;SDS011;12365;43.554;1.388;2024-03-02T00:18:19;8.65;;;5.30;;
24233;SDS011;12365;43.554;1.388;2024-03-02T00:20:46;9.40;;;5.72;;
24233;SDS011;12365;43.554;1.388;2024-03-02T00:23:15;8.57;;;5.60;;
24233;SDS011;12365;43.554;1.388;2024-03-02T00:25:49;10.50;;;5.38;;
24233;SDS011;12365;43.554;1.388;2024-03-02T00:28:22;10.45;;;5.22;;
24233;SDS011;12365;43.554;1.388;2024-03-02T00:30:54;9.85;;;5.18;;
24233;SDS011;12365;43.554;1.388;2024-03-02T00:33:26;9.82;;;4.88;;
24233;SDS011;12365;43.554;1.388;2024-03-02T00:35:53;9.20;;;5.07;;
24233;SDS011;12365;43.554;1.388;2024-03-02T00:38:19;8.43;;;5.18;;
24233;SDS011;12365;43.554;1.388;2024-03-02T00:40:45;8.73;;;4.80;;
24233;SDS011;12365;43.554;1.388;2024-03-02T00:43:18;10.60;;;5.40;;
24233;SDS011;12365;43.554;1.388;2024-03-02T00:46:02;8.77;;;5.43;;
24233;SDS011;12365;43.554;1.388;2024-03-02T00:48:27;7.03;;;4.70;;
24233;SDS011;12365;43.554;1.388;2024-03-02T00:50:56;9.95;;;5.63;;
24233;SDS011;12365;43.554;1.388;2024-03-02T00:53:22;8.85;;;5.22;;
24233;SDS011;12365;43.554;1.388;2024-03-02T00:55:52;7.65;;;5.15;;
24233;SDS011;12365;43.554;1.388;2024-03-02T00:58:17;10.45;;;5.57;;
24233;SDS011;12365;43.554;1.388;2024-03-02T01:00:43;10.68;;;5.50;;
24233;SDS011;12365;43.554;1.388;2024-03-02T01:03:08;9.55;;;5.43;;
24233;SDS011;12365;43.554;1.388;2024-03-02T01:05:35;8.93;;;5.38;;
24233;SDS011;12365;43.554;1.388;2024-03-02T01:08:01;10.45;;;5.50;;
24233;SDS011;12365;43.554;1.388;2024-03-02T01:10:26;12.55;;;5.68;;
24233;SDS011;12365;43.554;1.388;2024-03-02T01:12:51;10.45;;;6.47;;
24233;SDS011;12365;43.554;1.388;2024-03-02T01:15:17;10.20;;;6.43;;
24233;SDS011;12365;43.554;1.388;2024-03-02T01:17:42;9.82;;;6.25;;
24233;SDS011;12365;43.554;1.388;2024-03-02T01:20:08;11.57;;;6.05;;
24233;SDS011;12365;43.554;1.388;2024-03-02T01:22:34;10.55;;;5.40;;
24233;SDS011;12365;43.554;1.388;2024-03-02T01:25:00;11.68;;;5.60;;
24233;SDS011;12365;43.554;1.388;2024-03-02T01:27:26;11.15;;;6.07;;
24233;SDS011;12365;43.554;1.388;2024-03-02T01:29:52;9.50;;;5.65;;
24233;SDS011;12365;43.554;1.388;2024-03-02T01:32:17;9.80;;;5.40;;
24233;SDS011;12365;43.554;1.388;2024-03-02T01:34:43;8.57;;;5.35;;
24233;SDS011;12365;43.554;1.388;2024-03-02T01:37:08;7.75;;;4.75;;
24233;SDS011;12365;43.554;1.388;2024-03-02T01:39:35;12.18;;;4.95;;
24233;SDS011;12365;43.554;1.388;2024-03-02T01:42:00;8.32;;;4.85;;
24233;SDS011;12365;43.554;1.388;2024-03-02T01:44:26;8.45;;;4.60;;
24233;SDS011;12365;43.554;1.388;2024-03-02T01:46:51;9.00;;;5.30;;
24233;SDS011;12365;43.554;1.388;2024-03-02T01:49:17;7.82;;;4.95;;
24233;SDS011;12365;43.554;1.388;2024-03-02T01:51:43;11.93;;;5.15;;
24233;SDS011;12365;43.554;1.388;2024-03-02T01:54:09;8.48;;;5.18;;
24233;SDS011;12365;43.554;1.388;2024-03-02T01:56:34;8.40;;;5.20;;
24233;SDS011;12365;43.554;1.388;2024-03-02T01:59:00;9.07;;;4.80;;
24233;SDS011;12365;43.554;1.388;2024-03-02T02:01:25;10.40;;;4.78;;
24233;SDS011;12365;43.554;1.388;2024-03-02T02:03:51;8.77;;;4.63;;
24233;SDS011;12365;43.554;1.388;2024-03-02T02:06:17;7.68;;;4.78;;
24233;SDS011;12365;43.554;1.388;2024-03-02T02:08:42;7.68;;;4.60;;
24233;SDS011;12365;43.554;1.388;2024-03-02T02:11:08;10.57;;;4.88;;
24233;SDS011;12365;43.554;1.388;2024-03-02T02:13:33;11.25;;;4.70;;
24233;SDS011;12365;43.554;1.388;2024-03-02T02:16:08;6.47;;;4.50;;
24233;SDS011;12365;43.554;1.388;2024-03-02T02:18:34;8.15;;;4.85;;
24233;SDS011;12365;43.554;1.388;2024-03-02T02:21:00;8.20;;;4.47;;
24233;SDS011;12365;43.554;1.388;2024-03-02T02:23:26;7.85;;;4.40;;
24233;SDS011;12365;43.554;1.388;2024-03-02T02:25:52;8.45;;;4.57;;
24233;SDS011;12365;43.554;1.388;2024-03-02T02:28:17;10.38;;;4.78;;
24233;SDS011;12365;43.554;1.388;2024-03-02T02:30:42;8.15;;;4.55;;
24233;SDS011;12365;43.554;1.388;2024-03-02T02:33:08;10.90;;;4.47;;
24233;SDS011;12365;43.554;1.388;2024-03-02T02:35:34;6.32;;;4.10;;
24233;SDS011;12365;43.554;1.388;2024-03-02T02:37:59;7.75;;;4.50;;
24233;SDS011;12365;43.554;1.388;2024-03-02T02:40:26;7.22;;;4.50;;
24233;SDS011;12365;43.554;1.388;2024-03-02T02:42:51;6.65;;;4.50;;
24233;SDS011;12365;43.554;1.388;2024-03-02T02:45:17;6.32;;;4.10;;
24233;SDS011;12365;43.554;1.388;2024-03-02T02:47:42;8.80;;;3.97;;
24233;SDS011;12365;43.554;1.388;2024-03-02T02:50:08;9.13;;;4.47;;
24233;SDS011;12365;43.554;1.388;2024-03-02T02:52:35;7.22;;;4.63;;
24233;SDS011;12365;43.554;1.388;2024-03-02T02:55:04;10.25;;;4.68;;
24233;SDS011;12365;43.554;1.388;2024-03-02T02:57:33;8.32;;;5.07;;
24233;SDS011;12365;43.554;1.388;2024-03-02T03:00:02;7.60;;;5.05;;
24233;SDS011;12365;43.554;1.388;2024-03-02T03:02:35;12.27;;;5.93;;
24233;SDS011;12365;43.554;1.388;2024-03-02T03:05:02;8.55;;;5.32;;
24233;SDS011;12365;43.554;1.388;2024-03-02T03:07:28;11.57;;;5.50;;
24233;SDS011;12365;43.554;1.388;2024-03-02T03:09:53;8.13;;;5.10;;
24233;SDS011;12365;43.554;1.388;2024-03-02T03:12:18;9.65;;;5.00;;
24233;SDS011;12365;43.554;1.388;2024-03-02T03:14:44;8.57;;;4.90;;
24233;SDS011;12365;43.554;1.388;2024-03-02T03:17:09;6.95;;;4.68;;
24233;SDS011;12365;43.554;1.388;2024-03-02T03:19:34;8.45;;;4.45;;
24233;SDS011;12365;43.554;1.388;2024-03-02T03:22:00;7.15;;;4.32;;
24233;SDS011;12365;43.554;1.388;2024-03-02T03:24:26;8.57;;;4.47;;
24233;SDS011;12365;43.554;1.388;2024-03-02T03:26:51;6.13;;;4.22;;
24233;SDS011;12365;43.554;1.388;2024-03-02T03:29:17;6.88;;;3.95;;
24233;SDS011;12365;43.554;1.388;2024-03-02T03:31:42;7.40;;;3.80;;
24233;SDS011;12365;43.554;1.388;2024-03-02T03:34:08;7.00;;;3.72;;
24233;SDS011;12365;43.554;1.388;2024-03-02T03:36:33;7.20;;;3.70;;
24233;SDS011;12365;43.554;1.388;2024-03-02T03:38:58;7.68;;;4.00;;
24233;SDS011;12365;43.554;1.388;2024-03-02T03:41:24;6.80;;;3.60;;
24233;SDS011;12365;43.554;1.388;2024-03-02T03:43:49;5.30;;;3.40;;
24233;SDS011;12365;43.554;1.388;2024-03-02T03:46:14;5.70;;;3.40;;
24233;SDS011;12365;43.554;1.388;2024-03-02T03:48:40;6.07;;;3.50;;
24233;SDS011;12365;43.554;1.388;2024-03-02T03:51:07;4.22;;;3.10;;
24233;SDS011;12365;43.554;1.388;2024-03-02T03:53:32;8.13;;;3.75;;
24233;SDS011;12365;43.554;1.388;2024-03-02T03:55:57;7.72;;;3.85;;
24233;SDS011;12365;43.554;1.388;2024-03-02T03:58:23;6.43;;;3.38;;
24233;SDS011;12365;43.554;1.388;2024-03-02T04:00:48;5.93;;;3.30;;
24233;SDS011;12365;43.554;1.388;2024-03-02T04:03:13;4.50;;;3.20;;
24233;SDS011;12365;43.554;1.388;2024-03-02T04:05:39;5.68;;;3.15;;
24233;SDS011;12365;43.554;1.388;2024-03-02T04:08:04;6.68;;;3.10;;
24233;SDS011;12365;43.554;1.388;2024-03-02T04:10:30;6.30;;;3.33;;
24233;SDS011;12365;43.554;1.388;2024-03-02T04:12:55;8.05;;;2.90;;
24233;SDS011;12365;43.554;1.388;2024-03-02T04:15:21;7.35;;;3.10;;
24233;SDS011;12365;43.554;1.388;2024-03-02T04:17:48;4.07;;;2.80;;
24233;SDS011;12365;43.554;1.388;2024-03-02T04:20:13;6.13;;;3.00;;
24233;SDS011;12365;43.554;1.388;2024-03-02T04:22:39;7.47;;;3.00;;
24233;SDS011;12365;43.554;1.388;2024-03-02T04:25:04;5.03;;;2.97;;
24233;SDS011;12365;43.554;1.388;2024-03-02T04:27:30;4.63;;;2.92;;
24233;SDS011;12365;43.554;1.388;2024-03-02T04:29:58;5.00;;;2.92;;
24233;SDS011;12365;43.554;1.388;2024-03-02T04:32:25;7.13;;;3.15;;
24233;SDS011;12365;43.554;1.388;2024-03-02T04:34:51;7.78;;;3.15;;
24233;SDS011;12365;43.554;1.388;2024-03-02T04:37:16;4.68;;;2.97;;
24233;SDS011;12365;43.554;1.388;2024-03-02T04:39:42;9.35;;;3.10;;
24233;SDS011;12365;43.554;1.388;2024-03-02T04:42:07;7.13;;;2.80;;
24233;SDS011;12365;43.554;1.388;2024-03-02T04:44:32;5.50;;;2.95;;
24233;SDS011;12365;43.554;1.388;2024-03-02T04:46:58;5.85;;;2.97;;
24233;SDS011;12365;43.554;1.388;2024-03-02T04:49:23;4.95;;;2.72;;
24233;SDS011;12365;43.554;1.388;2024-03-02T04:51:49;7.07;;;2.90;;
24233;SDS011;12365;43.554;1.388;2024-03-02T04:54:14;6.25;;;2.80;;
24233;SDS011;12365;43.554;1.388;2024-03-02T04:56:40;5.53;;;2.50;;
24233;SDS011;12365;43.554;1.388;2024-03-02T04:59:09;3.95;;;2.38;;
24233;SDS011;12365;43.554;1.388;2024-03-02T05:01:35;4.65;;;2.50;;
24233;SDS011;12365;43.554;1.388;2024-03-02T05:04:01;4.43;;;2.42;;
24233;SDS011;12365;43.554;1.388;2024-03-02T05:06:26;5.90;;;2.80;;
24233;SDS011;12365;43.554;1.388;2024-03-02T05:08:51;5.70;;;2.72;;
24233;SDS011;12365;43.554;1.388;2024-03-02T05:11:17;4.70;;;2.35;;
24233;SDS011;12365;43.554;1.388;2024-03-02T05:14:14;5.10;;;2.40;;
24233;SDS011;12365;43.554;1.388;2024-03-02T05:16:39;4.22;;;2.45;;
24233;SDS011;12365;43.554;1.388;2024-03-02T05:19:06;4.68;;;2.22;;
24233;SDS011;12365;43.554;1.388;2024-03-02T05:21:32;8.30;;;2.53;;
24233;SDS011;12365;43.554;1.388;2024-03-02T05:23:58;3.67;;;2.40;;
24233;SDS011;12365;43.554;1.388;2024-03-02T05:26:24;4.40;;;2.58;;
24233;SDS011;12365;43.554;1.388;2024-03-02T05:28:49;4.85;;;2.53;;
24233;SDS011;12365;43.554;1.388;2024-03-02T05:31:15;4.65;;;2.63;;
24233;SDS011;12365;43.554;1.388;2024-03-02T05:33:41;4.13;;;2.42;;
24233;SDS011;12365;43.554;1.388;2024-03-02T05:36:07;7.65;;;2.65;;
24233;SDS011;12365;43.554;1.388;2024-03-02T05:38:35;8.15;;;2.72;;
24233;SDS011;12365;43.554;1.388;2024-03-02T05:41:01;7.13;;;2.92;;
24233;SDS011;12365;43.554;1.388;2024-03-02T05:43:26;4.65;;;2.75;;
24233;SDS011;12365;43.554;1.388;2024-03-02T05:45:52;6.45;;;2.78;;
24233;SDS011;12365;43.554;1.388;2024-03-02T05:48:17;5.82;;;2.78;;
24233;SDS011;12365;43.554;1.388;2024-03-02T05:50:43;6.00;;;3.00;;
24233;SDS011;12365;43.554;1.388;2024-03-02T05:53:08;6.93;;;2.88;;
24233;SDS011;12365;43.554;1.388;2024-03-02T05:55:34;5.50;;;3.03;;
24233;SDS011;12365;43.554;1.388;2024-03-02T05:57:59;4.05;;;2.72;;
24233;SDS011;12365;43.554;1.388;2024-03-02T06:00:31;9.25;;;2.90;;
24233;SDS011;12365;43.554;1.388;2024-03-02T06:02:57;4.75;;;2.90;;
24233;SDS011;12365;43.554;1.388;2024-03-02T06:05:22;4.15;;;2.75;;
24233;SDS011;12365;43.554;1.388;2024-03-02T06:07:48;4.38;;;2.80;;
24233;SDS011;12365;43.554;1.388;2024-03-02T06:10:13;4.10;;;2.85;;
24233;SDS011;12365;43.554;1.388;2024-03-02T06:12:39;3.35;;;2.45;;
24233;SDS011;12365;43.554;1.388;2024-03-02T06:15:05;6.18;;;2.60;;
24233;SDS011;12365;43.554;1.388;2024-03-02T06:17:31;5.13;;;2.63;;
24233;SDS011;12365;43.554;1.388;2024-03-02T06:19:57;5.43;;;2.67;;
24233;SDS011;12365;43.554;1.388;2024-03-02T06:22:22;4.15;;;2.20;;
24233;SDS011;12365;43.554;1.388;2024-03-02T06:24:50;4.47;;;2.50;;
24233;SDS011;12365;43.554;1.388;2024-03-02T06:27:15;3.85;;;2.42;;
24233;SDS011;12365;43.554;1.388;2024-03-02T06:29:41;4.10;;;2.38;;
24233;SDS011;12365;43.554;1.388;2024-03-02T06:32:06;5.80;;;2.50;;
24233;SDS011;12365;43.554;1.388;2024-03-02T06:34:32;4.85;;;2.72;;
24233;SDS011;12365;43.554;1.388;2024-03-02T06:36:57;4.32;;;2.55;;
24233;SDS011;12365;43.554;1.388;2024-03-02T06:39:23;3.63;;;2.53;;
24233;SDS011;12365;43.554;1.388;2024-03-02T06:41:48;4.90;;;2.72;;
24233;SDS011;12365;43.554;1.388;2024-03-02T06:44:14;3.65;;;2.25;;
24233;SDS011;12365;43.554;1.388;2024-03-02T06:46:39;9.60;;;2.50;;
24233;SDS011;12365;43.554;1.388;2024-03-02T06:49:04;7.18;;;2.50;;
24233;SDS011;12365;43.554;1.388;2024-03-02T06:51:30;4.82;;;2.75;;
24233;SDS011;12365;43.554;1.388;2024-03-02T06:53:55;9.05;;;2.92;;
24233;SDS011;12365;43.554;1.388;2024-03-02T06:56:21;5.68;;;2.33;;
24233;SDS011;12365;43.554;1.388;2024-03-02T06:58:46;6.05;;;2.65;;
24233;SDS011;12365;43.554;1.388;2024-03-02T07:01:12;3.75;;;2.22;;
24233;SDS011;12365;43.554;1.388;2024-03-02T07:03:38;3.85;;;2.15;;
24233;SDS011;12365;43.554;1.388;2024-03-02T07:06:04;4.03;;;2.40;;
24233;SDS011;12365;43.554;1.388;2024-03-02T07:08:30;3.90;;;2.13;;
24233;SDS011;12365;43.554;1.388;2024-03-02T07:10:55;4.22;;;2.33;;
24233;SDS011;12365;43.554;1.388;2024-03-02T07:13:22;3.00;;;2.10;;
24233;SDS011;12365;43.554;1.388;2024-03-02T07:15:47;6.25;;;2.70;;
24233;SDS011;12365;43.554;1.388;2024-03-02T07:18:28;4.88;;;2.22;;
24233;SDS011;12365;43.554;1.388;2024-03-02T07:20:54;3.53;;;2.42;;
24233;SDS011;12365;43.554;1.388;2024-03-02T07:23:20;4.80;;;2.42;;
24233;SDS011;12365;43.554;1.388;2024-03-02T07:25:49;4.55;;;2.40;;
24233;SDS011;12365;43.554;1.388;2024-03-02T07:28:15;3.30;;;2.30;;
24233;SDS011;12365;43.554;1.388;2024-03-02T07:30:41;3.53;;;2.20;;
24233;SDS011;12365;43.554;1.388;2024-03-02T07:33:06;6.05;;;2.33;;
24233;SDS011;12365;43.554;1.388;2024-03-02T07:35:32;5.40;;;2.42;;
24233;SDS011;12365;43.554;1.388;2024-03-02T07:37:57;5.47;;;2.70;;
24233;SDS011;12365;43.554;1.388;2024-03-02T07:40:23;5.32;;;2.67;;
24233;SDS011;12365;43.554;1.388;2024-03-02T07:42:49;5.85;;;2.53;;
24233;SDS011;12365;43.554;1.388;2024-03-02T07:45:14;7.93;;;3.10;;
24233;SDS011;12365;43.554;1.388;2024-03-02T07:47:40;5.72;;;3.30;;
24233;SDS011;12365;43.554;1.388;2024-03-02T07:50:06;7.35;;;3.15;;
24233;SDS011;12365;43.554;1.388;2024-03-02T07:52:31;9.70;;;3.45;;
24233;SDS011;12365;43.554;1.388;2024-03-02T07:54:58;6.18;;;2.88;;
24233;SDS011;12365;43.554;1.388;2024-03-02T07:57:23;4.35;;;2.33;;
24233;SDS011;12365;43.554;1.388;2024-03-02T07:59:49;4.03;;;2.63;;
24233;SDS011;12365;43.554;1.388;2024-03-02T08:02:14;5.45;;;2.70;;
24233;SDS011;12365;43.554;1.388;2024-03-02T08:04:40;3.25;;;1.95;;
24233;SDS011;12365;43.554;1.388;2024-03-02T08:07:06;4.20;;;1.83;;
24233;SDS011;12365;43.554;1.388;2024-03-02T08:09:31;5.82;;;2.22;;
24233;SDS011;12365;43.554;1.388;2024-03-02T08:11:57;4.80;;;2.00;;
24233;SDS011;12365;43.554;1.388;2024-03-02T08:14:23;2.75;;;1.73;;
24233;SDS011;12365;43.554;1.388;2024-03-02T08:16:49;5.07;;;1.90;;
24233;SDS011;12365;43.554;1.388;2024-03-02T08:19:14;2.78;;;1.55;;
24233;SDS011;12365;43.554;1.388;2024-03-02T08:21:40;3.33;;;1.80;;
24233;SDS011;12365;43.554;1.388;2024-03-02T08:24:05;3.15;;;1.60;;
24233;SDS011;12365;43.554;1.388;2024-03-02T08:26:31;4.20;;;1.50;;
24233;SDS011;12365;43.554;1.388;2024-03-02T08:28:57;5.53;;;1.60;;
24233;SDS011;12365;43.554;1.388;2024-03-02T08:31:24;5.78;;;1.70;;
24233;SDS011;12365;43.554;1.388;2024-03-02T08:33:49;1.80;;;1.50;;
24233;SDS011;12365;43.554;1.388;2024-03-02T08:36:14;3.10;;;1.50;;
24233;SDS011;12365;43.554;1.388;2024-03-02T08:38:40;3.80;;;1.63;;
24233;SDS011;12365;43.554;1.388;2024-03-02T08:41:06;5.63;;;1.45;;
24233;SDS011;12365;43.554;1.388;2024-03-02T08:43:32;3.58;;;1.60;;
24233;SDS011;12365;43.554;1.388;2024-03-02T08:45:58;6.32;;;1.50;;
24233;SDS011;12365;43.554;1.388;2024-03-02T08:48:23;6.85;;;1.67;;
24233;SDS011;12365;43.554;1.388;2024-03-02T08:50:49;4.05;;;1.50;;
24233;SDS011;12365;43.554;1.388;2024-03-02T08:53:14;7.00;;;1.98;;
24233;SDS011;12365;43.554;1.388;2024-03-02T08:55:44;7.15;;;1.52;;
24233;SDS011;12365;43.554;1.388;2024-03-02T08:58:12;9.35;;;1.90;;
24233;SDS011;12365;43.554;1.388;2024-03-02T09:00:38;4.50;;;1.42;;
24233;SDS011;12365;43.554;1.388;2024-03-02T09:03:03;5.10;;;1.55;;
24233;SDS011;12365;43.554;1.388;2024-03-02T09:05:29;8.70;;;1.85;;
24233;SDS011;12365;43.554;1.388;2024-03-02T09:07:54;5.25;;;1.63;;
24233;SDS011;12365;43.554;1.388;2024-03-02T09:10:20;5.05;;;1.77;;
24233;SDS011;12365;43.554;1.388;2024-03-02T09:12:45;5.47;;;1.63;;
24233;SDS011;12365;43.554;1.388;2024-03-02T09:15:11;9.15;;;1.67;;
24233;SDS011;12365;43.554;1.388;2024-03-02T09:17:37;5.18;;;1.63;;
24233;SDS011;12365;43.554;1.388;2024-03-02T09:20:02;6.50;;;1.80;;
24233;SDS011;12365;43.554;1.388;2024-03-02T09:22:29;3.03;;;1.58;;
24233;SDS011;12365;43.554;1.388;2024-03-02T09:24:55;6.15;;;1.90;;
24233;SDS011;12365;43.554;1.388;2024-03-02T09:27:20;8.90;;;2.25;;
24233;SDS011;12365;43.554;1.388;2024-03-02T09:29:46;7.88;;;1.95;;
24233;SDS011;12365;43.554;1.388;2024-03-02T09:32:14;6.00;;;1.75;;
24233;SDS011;12365;43.554;1.388;2024-03-02T09:34:40;4.90;;;1.75;;
24233;SDS011;12365;43.554;1.388;2024-03-02T09:37:06;6.40;;;1.70;;
24233;SDS011;12365;43.554;1.388;2024-03-02T09:39:31;7.78;;;1.70;;
24233;SDS011;12365;43.554;1.388;2024-03-02T09:41:57;8.23;;;2.40;;
24233;SDS011;12365;43.554;1.388;2024-03-02T09:44:24;6.55;;;1.98;;
24233;SDS011;12365;43.554;1.388;2024-03-02T09:46:51;8.25;;;2.20;;
24233;SDS011;12365;43.554;1.388;2024-03-02T09:49:16;7.40;;;2.05;;
24233;SDS011;12365;43.554;1.388;2024-03-02T09:51:46;7.18;;;2.13;;
24233;SDS011;12365;43.554;1.388;2024-03-02T09:54:12;6.68;;;1.95;;
24233;SDS011;12365;43.554;1.388;2024-03-02T09:56:38;9.30;;;1.98;;
24233;SDS011;12365;43.554;1.388;2024-03-02T09:59:04;7.28;;;2.35;;
24233;SDS011;12365;43.554;1.388;2024-03-02T10:01:30;6.22;;;2.10;;
24233;SDS011;12365;43.554;1.388;2024-03-02T10:03:58;8.68;;;2.10;;
24233;SDS011;12365;43.554;1.388;2024-03-02T10:06:25;8.30;;;2.17;;
24233;SDS011;12365;43.554;1.388;2024-03-02T10:08:52;6.43;;;2.10;;
24233;SDS011;12365;43.554;1.388;2024-03-02T10:11:32;7.90;;;2.00;;
24233;SDS011;12365;43.554;1.388;2024-03-02T10:16:33;10.88;;;2.25;;
24233;SDS011;12365;43.554;1.388;2024-03-02T10:19:03;11.40;;;2.17;;
24233;SDS011;12365;43.554;1.388;2024-03-02T10:21:40;8.27;;;2.20;;
24233;SDS011;12365;43.554;1.388;2024-03-02T10:24:09;12.32;;;2.67;;
24233;SDS011;12365;43.554;1.388;2024-03-02T10:26:34;8.95;;;2.03;;
24233;SDS011;12365;43.554;1.388;2024-03-02T10:28:59;7.53;;;2.20;;
24233;SDS011;12365;43.554;1.388;2024-03-02T10:31:25;10.60;;;2.20;;
24233;SDS011;12365;43.554;1.388;2024-03-02T10:33:54;8.82;;;2.00;;
24233;SDS011;12365;43.554;1.388;2024-03-02T10:36:20;5.68;;;1.90;;
24233;SDS011;12365;43.554;1.388;2024-03-02T10:38:46;8.60;;;2.15;;
24233;SDS011;12365;43.554;1.388;2024-03-02T10:41:16;9.43;;;2.30;;
24233;SDS011;12365;43.554;1.388;2024-03-02T10:43:42;7.10;;;2.10;;
24233;SDS011;12365;43.554;1.388;2024-03-02T10:46:08;7.30;;;2.10;;
24233;SDS011;12365;43.554;1.388;2024-03-02T10:48:36;8.95;;;2.33;;
24233;SDS011;12365;43.554;1.388;2024-03-02T10:51:04;4.85;;;1.98;;
24233;SDS011;12365;43.554;1.388;2024-03-02T10:53:30;8.32;;;2.33;;
24233;SDS011;12365;43.554;1.388;2024-03-02T10:55:57;8.63;;;2.40;;
24233;SDS011;12365;43.554;1.388;2024-03-02T10:58:27;10.45;;;2.50;;
24233;SDS011;12365;43.554;1.388;2024-03-02T11:00:59;7.18;;;2.10;;
24233;SDS011;12365;43.554;1.388;2024-03-02T11:03:27;7.72;;;2.40;;
24233;SDS011;12365;43.554;1.388;2024-03-02T11:05:56;6.95;;;2.05;;
24233;SDS011;12365;43.554;1.388;2024-03-02T11:08:24;8.15;;;2.30;;
24233;SDS011;12365;43.554;1.388;2024-03-02T11:10:52;11.05;;;2.35;;
24233;SDS011;12365;43.554;1.388;2024-03-02T11:15:54;8.13;;;2.20;;
24233;SDS011;12365;43.554;1.388;2024-03-02T11:18:24;11.82;;;2.30;;
24233;SDS011;12365;43.554;1.388;2024-03-02T11:20:50;9.50;;;2.10;;
24233;SDS011;12365;43.554;1.388;2024-03-02T11:23:16;8.60;;;2.10;;
24233;SDS011;12365;43.554;1.388;2024-03-02T11:25:41;7.88;;;2.38;;
24233;SDS011;12365;43.554;1.388;2024-03-02T11:28:07;7.90;;;2.00;;
24233;SDS011;12365;43.554;1.388;2024-03-02T11:33:04;5.15;;;1.60;;
24233;SDS011;12365;43.554;1.388;2024-03-02T11:35:33;4.97;;;1.63;;
24233;SDS011;12365;43.554;1.388;2024-03-02T11:37:59;9.25;;;1.77;;
24233;SDS011;12365;43.554;1.388;2024-03-02T11:40:26;5.82;;;1.60;;
24233;SDS011;12365;43.554;1.388;2024-03-02T11:42:53;4.90;;;1.63;;
24233;SDS011;12365;43.554;1.388;2024-03-02T11:45:25;2.55;;;1.42;;
24233;SDS011;12365;43.554;1.388;2024-03-02T11:47:52;6.75;;;1.80;;
24233;SDS011;12365;43.554;1.388;2024-03-02T11:53:17;4.20;;;1.50;;
24233;SDS011;12365;43.554;1.388;2024-03-02T11:55:44;6.93;;;1.58;;
24233;SDS011;12365;43.554;1.388;2024-03-02T11:58:13;7.50;;;1.42;;
24233;SDS011;12365;43.554;1.388;2024-03-02T12:00:39;7.30;;;1.58;;
24233;SDS011;12365;43.554;1.388;2024-03-02T12:05:31;7.13;;;1.58;;
24233;SDS011;12365;43.554;1.388;2024-03-02T12:08:01;7.82;;;2.10;;
24233;SDS011;12365;43.554;1.388;2024-03-02T12:10:30;7.18;;;1.83;;
24233;SDS011;12365;43.554;1.388;2024-03-02T12:13:00;5.05;;;1.65;;
24233;SDS011;12365;43.554;1.388;2024-03-02T12:15:27;6.82;;;1.90;;
24233;SDS011;12365;43.554;1.388;2024-03-02T12:17:54;7.93;;;1.88;;
24233;SDS011;12365;43.554;1.388;2024-03-02T12:20:24;4.57;;;1.63;;
24233;SDS011;12365;43.554;1.388;2024-03-02T12:22:51;6.28;;;1.80;;
24233;SDS011;12365;43.554;1.388;2024-03-02T12:25:19;8.20;;;1.70;;
24233;SDS011;12365;43.554;1.388;2024-03-02T12:27:45;6.75;;;1.98;;
24233;SDS011;12365;43.554;1.388;2024-03-02T12:30:11;7.15;;;1.80;;
24233;SDS011;12365;43.554;1.388;2024-03-02T12:32:38;6.13;;;2.17;;
24233;SDS011;12365;43.554;1.388;2024-03-02T12:35:05;5.57;;;1.92;;
24233;SDS011;12365;43.554;1.388;2024-03-02T12:37:31;8.60;;;1.80;;
24233;SDS011;12365;43.554;1.388;2024-03-02T12:39:56;4.55;;;1.80;;
24233;SDS011;12365;43.554;1.388;2024-03-02T12:42:21;7.32;;;1.90;;
24233;SDS011;12365;43.554;1.388;2024-03-02T12:44:51;8.82;;;2.20;;
24233;SDS011;12365;43.554;1.388;2024-03-02T12:47:19;6.43;;;2.00;;
24233;SDS011;12365;43.554;1.388;2024-03-02T12:49:45;8.43;;;2.40;;
24233;SDS011;12365;43.554;1.388;2024-03-02T12:52:12;6.47;;;1.90;;
24233;SDS011;12365;43.554;1.388;2024-03-02T12:54:38;6.63;;;1.90;;
24233;SDS011;12365;43.554;1.388;2024-03-02T12:57:03;5.78;;;2.03;;
24233;SDS011;12365;43.554;1.388;2024-03-02T12:59:29;5.68;;;1.65;;
24233;SDS011;12365;43.554;1.388;2024-03-02T13:01:55;7.80;;;1.73;;
24233;SDS011;12365;43.554;1.388;2024-03-02T13:04:27;6.75;;;1.67;;
24233;SDS011;12365;43.554;1.388;2024-03-02T13:06:54;9.48;;;2.08;;
24233;SDS011;12365;43.554;1.388;2024-03-02T13:09:22;5.65;;;1.70;;
24233;SDS011;12365;43.554;1.388;2024-03-02T13:11:48;4.30;;;1.65;;
24233;SDS011;12365;43.554;1.388;2024-03-02T13:14:14;5.60;;;1.70;;
24233;SDS011;12365;43.554;1.388;2024-03-02T13:16:40;7.18;;;1.95;;
24233;SDS011;12365;43.554;1.388;2024-03-02T13:19:10;6.82;;;1.70;;
24233;SDS011;12365;43.554;1.388;2024-03-02T13:21:36;7.07;;;1.95;;
24233;SDS011;12365;43.554;1.388;2024-03-02T13:24:02;4.65;;;1.50;;
24233;SDS011;12365;43.554;1.388;2024-03-02T13:26:28;5.43;;;1.80;;
24233;SDS011;12365;43.554;1.388;2024-03-02T13:28:54;6.00;;;1.85;;
24233;SDS011;12365;43.554;1.388;2024-03-02T13:31:19;4.57;;;1.77;;
24233;SDS011;12365;43.554;1.388;2024-03-02T13:33:45;5.38;;;1.85;;
24233;SDS011;12365;43.554;1.388;2024-03-02T13:36:11;5.35;;;1.75;;
24233;SDS011;12365;43.554;1.388;2024-03-02T13:38:37;6.20;;;2.03;;
24233;SDS011;12365;43.554;1.388;2024-03-02T13:41:02;5.75;;;1.65;;
24233;SDS011;12365;43.554;1.388;2024-03-02T13:43:28;5.75;;;1.73;;
24233;SDS011;12365;43.554;1.388;2024-03-02T13:45:57;8.93;;;2.00;;
24233;SDS011;12365;43.554;1.388;2024-03-02T13:48:23;6.57;;;1.73;;
24233;SDS011;12365;43.554;1.388;2024-03-02T13:50:50;7.15;;;1.80;;
24233;SDS011;12365;43.554;1.388;2024-03-02T13:53:17;4.43;;;1.80;;
24233;SDS011;12365;43.554;1.388;2024-03-02T13:55:43;7.15;;;1.67;;
24233;SDS011;12365;43.554;1.388;2024-03-02T13:58:09;4.93;;;1.40;;
24233;SDS011;12365;43.554;1.388;2024-03-02T14:00:34;6.88;;;1.80;;
24233;SDS011;12365;43.554;1.388;2024-03-02T14:03:00;7.20;;;1.80;;
24233;SDS011;12365;43.554;1.388;2024-03-02T14:05:26;5.63;;;1.88;;
24233;SDS011;12365;43.554;1.388;2024-03-02T14:07:51;4.88;;;1.70;;
24233;SDS011;12365;43.554;1.388;2024-03-02T14:10:17;6.93;;;1.70;;
24233;SDS011;12365;43.554;1.388;2024-03-02T14:12:47;6.38;;;1.50;;
24233;SDS011;12365;43.554;1.388;2024-03-02T14:15:12;4.65;;;1.73;;
24233;SDS011;12365;43.554;1.388;2024-03-02T14:17:37;7.78;;;1.83;;
24233;SDS011;12365;43.554;1.388;2024-03-02T14:20:03;7.78;;;1.95;;
24233;SDS011;12365;43.554;1.388;2024-03-02T14:22:30;6.15;;;1.80;;
24233;SDS011;12365;43.554;1.388;2024-03-02T14:24:55;7.70;;;1.80;;
24233;SDS011;12365;43.554;1.388;2024-03-02T14:27:22;4.95;;;1.80;;
24233;SDS011;12365;43.554;1.388;2024-03-02T14:29:47;6.20;;;1.83;;
24233;SDS011;12365;43.554;1.388;2024-03-02T14:32:13;8.48;;;1.67;;
24233;SDS011;12365;43.554;1.388;2024-03-02T14:34:38;4.82;;;1.77;;
24233;SDS011;12365;43.554;1.388;2024-03-02T14:37:03;7.22;;;1.63;;
24233;SDS011;12365;43.554;1.388;2024-03-02T14:39:29;5.32;;;1.80;;
24233;SDS011;12365;43.554;1.388;2024-03-02T14:41:58;7.20;;;2.08;;
24233;SDS011;12365;43.554;1.388;2024-03-02T14:44:23;5.85;;;2.10;;
24233;SDS011;12365;43.554;1.388;2024-03-02T14:46:49;5.80;;;1.85;;
24233;SDS011;12365;43.554;1.388;2024-03-02T14:49:15;5.45;;;2.22;;
24233;SDS011;12365;43.554;1.388;2024-03-02T14:51:41;8.57;;;2.00;;
24233;SDS011;12365;43.554;1.388;2024-03-02T14:54:06;5.93;;;1.77;;
24233;SDS011;12365;43.554;1.388;2024-03-02T14:56:31;8.05;;;1.80;;